createdAt,value
2018-11-04T05:13:08.074Z,34.13
2018-11-04T05:15:36.860Z,31.13
2018-11-04T05:18:06.164Z,31.10
2018-11-04T05:20:34.849Z,29.77
2018-11-04T05:23:03.573Z,26.40
2018-11-04T05:25:32.278Z,29.67
2018-11-04T05:28:00.966Z,27.83
2018-11-04T05:30:29.693Z,24.73
2018-11-04T05:32:58.404Z,30.67
2018-11-04T05:35:27.093Z,29.70
2018-11-04T05:37:55.777Z,27.73
2018-11-04T05:40:24.474Z,30.23
2018-11-04T05:42:53.172Z,27.17
2018-11-04T05:45:21.832Z,52.37
2018-11-04T05:47:50.522Z,27.40
2018-11-04T05:50:19.278Z,23.30
2018-11-04T05:52:48.059Z,25.53
2018-11-04T05:55:16.680Z,25.83
2018-11-04T05:57:45.403Z,27.00
2018-11-04T06:00:14.274Z,26.50
2018-11-04T06:02:42.976Z,27.90
2018-11-04T06:05:12.000Z,25.80
2018-11-04T06:07:41.299Z,25.23
2018-11-04T06:10:10.077Z,24.17
2018-11-04T06:12:38.789Z,24.53
2018-11-04T06:15:08.404Z,25.57
2018-11-04T06:17:37.092Z,24.27
2018-11-04T06:20:06.604Z,24.47
2018-11-04T06:22:35.561Z,20.53
2018-11-04T06:25:04.430Z,25.67
2018-11-04T06:27:33.166Z,22.23
2018-11-04T06:30:01.765Z,23.37
2018-11-04T06:32:31.261Z,23.03
2018-11-04T06:34:59.944Z,25.20
2018-11-04T06:37:28.640Z,21.80
2018-11-04T06:39:57.785Z,24.63
2018-11-04T06:42:26.544Z,26.20
2018-11-04T06:44:54.224Z,21.07
2018-11-04T06:47:22.987Z,23.60
2018-11-04T06:49:51.801Z,19.13
2018-11-04T06:52:20.555Z,20.80
2018-11-04T06:54:49.342Z,19.70
2018-11-04T06:57:18.105Z,21.97
2018-11-04T06:59:46.764Z,20.57
2018-11-04T07:02:15.376Z,20.87
2018-11-04T07:04:44.065Z,21.53
2018-11-04T07:07:12.963Z,19.03
2018-11-04T07:09:41.830Z,20.30
2018-11-04T07:12:10.599Z,28.17
2018-11-04T07:14:39.313Z,15.63
2018-11-04T07:17:08.026Z,17.80
2018-11-04T07:19:36.741Z,17.87
2018-11-04T07:22:05.469Z,23.00
2018-11-04T07:24:34.177Z,17.13
2018-11-04T07:27:03.117Z,17.00
2018-11-04T07:29:31.782Z,18.87
2018-11-04T07:32:00.589Z,16.93
2018-11-04T07:34:29.319Z,18.17
2018-11-04T07:36:58.025Z,16.97
2018-11-04T07:39:26.789Z,21.43
2018-11-04T07:41:55.554Z,19.20
2018-11-04T07:44:24.286Z,17.77
2018-11-04T07:46:55.064Z,17.97
2018-11-04T07:49:23.768Z,18.27
2018-11-04T07:51:52.459Z,18.97
2018-11-04T07:54:22.868Z,21.77
2018-11-04T07:56:51.572Z,17.90
2018-11-04T07:59:20.264Z,18.33
2018-11-04T08:01:49.689Z,22.73
2018-11-04T08:04:18.476Z,20.23
2018-11-04T08:06:47.260Z,16.83
2018-11-04T08:09:16.019Z,20.93
2018-11-04T08:11:44.797Z,21.33
2018-11-04T08:14:13.618Z,17.57
2018-11-04T08:16:42.325Z,17.27
2018-11-04T08:19:11.419Z,16.27
2018-11-04T08:21:40.124Z,16.07
2018-11-04T08:24:08.809Z,18.07
2018-11-04T08:26:37.509Z,18.07
2018-11-04T08:29:06.338Z,15.70
2018-11-04T08:31:35.098Z,17.23
2018-11-04T08:34:04.008Z,16.40
2018-11-04T08:36:32.755Z,17.60
2018-11-04T08:39:01.478Z,17.97
2018-11-04T08:41:30.179Z,20.10
2018-11-04T08:43:58.891Z,16.27
2018-11-04T08:46:27.553Z,14.63
2018-11-04T08:48:56.373Z,17.40
2018-11-04T08:51:25.099Z,20.23
2018-11-04T08:53:53.857Z,16.43
2018-11-04T08:56:22.641Z,17.17
2018-11-04T08:58:51.340Z,21.87
2018-11-04T09:01:20.020Z,15.93
2018-11-04T09:03:48.710Z,18.67
2018-11-04T09:06:17.460Z,16.20
2018-11-04T09:08:46.158Z,17.40
2018-11-04T09:11:14.925Z,14.40
2018-11-04T09:13:43.669Z,14.47
2018-11-04T09:16:12.404Z,12.93
2018-11-04T09:18:41.229Z,17.97
2018-11-04T09:21:09.894Z,17.73
2018-11-04T09:23:39.001Z,13.77
2018-11-04T09:26:07.765Z,12.83
2018-11-04T09:28:36.486Z,12.80
2018-11-04T09:31:05.298Z,13.50
2018-11-04T09:33:33.999Z,12.47
2018-11-04T09:36:02.761Z,14.10
2018-11-04T09:38:31.446Z,14.67
2018-11-04T09:41:00.137Z,15.43
2018-11-04T09:43:28.936Z,12.60
2018-11-04T09:45:57.585Z,12.00
2018-11-04T09:48:26.362Z,15.30
2018-11-04T09:50:55.090Z,11.93
2018-11-04T09:53:23.765Z,11.37
2018-11-04T09:55:52.463Z,10.90
2018-11-04T09:58:21.117Z,11.70
2018-11-04T10:00:49.816Z,16.43
2018-11-04T10:03:18.552Z,11.30
2018-11-04T10:05:47.357Z,10.60
2018-11-04T10:08:16.054Z,12.73
2018-11-04T10:10:44.776Z,11.47
2018-11-04T10:13:13.650Z,26.00
2018-11-04T10:15:42.402Z,12.50
2018-11-04T10:18:11.102Z,10.57
2018-11-04T10:20:43.683Z,13.70
2018-11-04T10:23:12.342Z,10.53
2018-11-04T10:25:41.030Z,10.23
2018-11-04T10:28:09.774Z,10.67
2018-11-04T10:30:38.813Z,13.07
2018-11-04T10:33:07.611Z,12.37
2018-11-04T10:35:36.324Z,15.83
2018-11-04T10:38:05.288Z,11.97
2018-11-04T10:40:34.017Z,10.90
2018-11-04T10:43:02.697Z,9.27
2018-11-04T10:45:31.401Z,13.63
2018-11-04T10:48:00.153Z,9.90
2018-11-04T10:50:28.888Z,13.13
2018-11-04T10:52:57.553Z,9.07
2018-11-04T10:55:26.208Z,7.70
2018-11-04T10:57:54.927Z,8.70
2018-11-04T11:00:28.927Z,8.77
2018-11-04T11:02:57.693Z,6.80
2018-11-04T11:05:26.582Z,10.37
2018-11-04T11:07:55.318Z,9.53
2018-11-04T11:10:23.996Z,7.10
2018-11-04T11:12:52.696Z,8.37
2018-11-04T11:15:21.413Z,6.80
2018-11-04T11:17:50.189Z,6.73
2018-11-04T11:20:18.893Z,6.67
2018-11-04T11:22:47.699Z,6.50
2018-11-04T11:25:16.597Z,11.80
2018-11-04T11:27:45.310Z,7.10
2018-11-04T11:30:14.158Z,7.03
2018-11-04T11:32:42.902Z,7.63
2018-11-04T11:35:11.581Z,6.43
2018-11-04T11:37:40.343Z,10.27
2018-11-04T11:40:09.971Z,6.90
2018-11-04T11:42:38.872Z,7.20
2018-11-04T11:45:08.476Z,5.27
2018-11-04T11:47:37.170Z,6.30
2018-11-04T11:50:06.955Z,6.47
2018-11-04T11:52:35.673Z,5.17
2018-11-04T11:55:04.489Z,4.47
2018-11-04T11:57:33.226Z,4.63
2018-11-04T12:00:02.019Z,5.37
2018-11-04T12:02:30.742Z,6.47
2018-11-04T12:04:59.388Z,4.33
2018-11-04T12:07:28.125Z,4.63
2018-11-04T12:09:56.838Z,4.87
2018-11-04T12:12:25.551Z,6.03
2018-11-04T12:14:54.281Z,7.13
2018-11-04T12:17:22.957Z,6.53
2018-11-04T12:19:51.589Z,7.13
2018-11-04T12:22:20.454Z,8.07
2018-11-04T12:24:49.606Z,6.27
2018-11-04T12:27:18.428Z,5.80
2018-11-04T12:29:47.157Z,5.83
2018-11-04T12:32:16.150Z,7.97
2018-11-04T12:34:44.841Z,4.97
2018-11-04T12:37:13.672Z,28.73
2018-11-04T12:39:42.381Z,13.17
2018-11-04T12:42:11.185Z,8.87
2018-11-04T12:44:39.956Z,27.33
2018-11-04T12:47:08.781Z,29.23
2018-11-04T12:49:38.065Z,12.33
2018-11-04T12:52:07.091Z,14.77
2018-11-04T12:54:35.923Z,11.30
2018-11-04T12:57:04.953Z,7.00
2018-11-04T12:59:33.678Z,6.43
2018-11-04T13:02:02.483Z,8.10
2018-11-04T13:04:31.150Z,5.43
2018-11-04T13:07:00.212Z,5.97
2018-11-04T13:09:28.861Z,4.80
2018-11-04T13:11:57.767Z,5.13
2018-11-04T13:14:26.502Z,5.60
2018-11-04T13:16:55.489Z,5.30
2018-11-04T13:19:24.193Z,4.83
2018-11-04T13:21:52.999Z,4.77
2018-11-04T13:24:21.655Z,4.97
2018-11-04T13:26:50.356Z,4.83
2018-11-04T13:29:19.002Z,5.30
2018-11-04T13:31:47.684Z,6.17
2018-11-04T13:34:16.340Z,8.83
2018-11-04T13:36:45.016Z,4.83
2018-11-04T13:39:13.749Z,6.33
2018-11-04T13:41:42.425Z,5.30
2018-11-04T13:44:11.134Z,4.50
2018-11-04T13:46:39.923Z,5.07
2018-11-04T13:49:08.673Z,6.37
2018-11-04T13:51:37.347Z,4.10
2018-11-04T13:54:06.379Z,7.27
2018-11-04T13:56:35.033Z,4.43
2018-11-04T13:59:03.877Z,4.83
2018-11-04T14:01:32.567Z,4.37
2018-11-04T14:04:01.306Z,6.53
2018-11-04T14:06:30.061Z,6.20
2018-11-04T14:08:58.725Z,5.43
2018-11-04T14:11:27.863Z,5.43
2018-11-04T14:13:56.509Z,4.50
2018-11-04T14:16:25.236Z,4.60
2018-11-04T14:18:54.049Z,4.87
2018-11-04T14:21:22.885Z,4.83
2018-11-04T14:23:51.791Z,4.43
2018-11-04T14:26:20.520Z,8.83
2018-11-04T14:28:49.267Z,4.80
2018-11-04T14:31:18.166Z,6.67
2018-11-04T14:33:46.912Z,5.20
2018-11-04T14:36:15.611Z,4.23
2018-11-04T14:38:44.341Z,5.77
2018-11-04T14:41:13.351Z,6.57
2018-11-04T14:43:42.121Z,6.77
2018-11-04T14:46:10.781Z,6.00
2018-11-04T14:48:39.525Z,5.87
2018-11-04T14:51:08.220Z,4.60
2018-11-04T14:53:36.925Z,7.73
2018-11-04T14:56:06.339Z,6.53
2018-11-04T14:58:35.040Z,5.17
2018-11-04T15:01:04.022Z,6.80
2018-11-04T15:03:32.786Z,6.17
2018-11-04T15:06:01.787Z,6.87
2018-11-04T15:08:30.725Z,7.50
2018-11-04T15:10:59.526Z,8.00
2018-11-04T15:13:28.211Z,7.73
2018-11-04T15:15:56.893Z,5.97
2018-11-04T15:18:25.638Z,6.30
2018-11-04T15:20:54.459Z,7.07
2018-11-04T15:23:23.206Z,7.03
2018-11-04T15:25:51.879Z,8.50
2018-11-04T15:28:20.632Z,7.73
2018-11-04T15:30:49.519Z,7.53
2018-11-04T15:33:18.190Z,5.50
2018-11-04T15:35:46.933Z,8.47
2018-11-04T15:38:15.615Z,8.00
2018-11-04T15:40:44.533Z,7.00
2018-11-04T15:43:13.063Z,15.73
2018-11-04T15:45:41.722Z,12.10
2018-11-04T15:48:10.401Z,6.93
2018-11-04T15:50:39.523Z,8.20
2018-11-04T15:53:08.162Z,8.80
2018-11-04T15:55:36.920Z,7.83
2018-11-04T15:58:05.998Z,7.80
2018-11-04T16:00:34.695Z,10.90
2018-11-04T16:03:03.343Z,9.47
2018-11-04T16:05:32.280Z,8.73
2018-11-04T16:08:01.318Z,8.50
2018-11-04T16:10:30.267Z,9.13
2018-11-04T16:12:59.096Z,8.33
2018-11-04T16:15:27.749Z,9.00
2018-11-04T16:17:56.616Z,9.63
2018-11-04T16:20:25.441Z,6.47
2018-11-04T16:22:54.076Z,5.60
2018-11-04T16:25:22.809Z,9.23
2018-11-04T16:27:51.552Z,7.63
2018-11-04T16:30:20.270Z,6.90
2018-11-04T16:32:48.946Z,7.40
2018-11-04T16:35:18.848Z,14.60
2018-11-04T16:37:47.650Z,8.20
2018-11-04T16:40:16.286Z,8.07
2018-11-04T16:42:45.150Z,8.23
2018-11-04T16:45:15.525Z,29.93
2018-11-04T16:47:44.341Z,25.50
2018-11-04T16:50:14.013Z,10.03
2018-11-04T16:52:43.437Z,14.57
2018-11-04T16:55:12.763Z,8.07
2018-11-04T16:57:41.729Z,8.23
2018-11-04T17:00:11.052Z,7.83
2018-11-04T17:02:39.919Z,11.63
2018-11-04T17:05:09.845Z,13.43
2018-11-04T17:07:38.529Z,11.57
2018-11-04T17:10:08.149Z,10.17
2018-11-04T17:12:36.901Z,10.87
2018-11-04T17:15:07.717Z,12.50
2018-11-04T17:17:36.414Z,11.13
2018-11-04T17:20:07.555Z,10.83
2018-11-04T17:22:36.263Z,10.63
2018-11-04T17:25:05.445Z,15.47
2018-11-04T17:27:34.129Z,13.17
2018-11-04T17:30:06.933Z,14.17
2018-11-04T17:32:35.582Z,11.73
2018-11-04T17:35:04.257Z,12.63
2018-11-04T17:37:32.909Z,11.23
2018-11-04T17:40:01.587Z,9.93
2018-11-04T17:42:30.292Z,12.07
2018-11-04T17:44:59.171Z,11.73
2018-11-04T17:47:27.850Z,11.00
2018-11-04T17:49:56.592Z,13.60
2018-11-04T17:52:25.306Z,13.17
2018-11-04T17:54:54.006Z,13.23
2018-11-04T17:57:23.490Z,18.30
2018-11-04T17:59:52.148Z,15.67
2018-11-04T18:02:21.114Z,14.27
2018-11-04T18:04:49.801Z,14.53
2018-11-04T18:07:18.493Z,14.07
2018-11-04T18:09:47.169Z,14.43
2018-11-04T18:12:15.844Z,14.00
2018-11-04T18:14:44.498Z,15.50
2018-11-04T18:17:13.128Z,12.40
2018-11-04T18:19:41.837Z,13.17
2018-11-04T18:22:10.482Z,16.93
2018-11-04T18:24:39.172Z,15.13
2018-11-04T18:27:07.900Z,16.90
2018-11-04T18:29:37.029Z,16.90
2018-11-04T18:32:06.727Z,17.33
2018-11-04T18:34:35.390Z,13.57
2018-11-04T18:37:04.173Z,14.47
2018-11-04T18:39:32.835Z,13.73
2018-11-04T18:42:01.515Z,13.80
2018-11-04T18:44:30.308Z,17.67
2018-11-04T18:46:59.902Z,15.77
2018-11-04T18:49:28.613Z,15.23
2018-11-04T18:51:57.493Z,16.47
2018-11-04T18:54:26.153Z,15.97
2018-11-04T18:56:55.046Z,15.23
2018-11-04T19:01:44.125Z,15.50
2018-11-04T19:04:12.784Z,18.90
2018-11-04T19:06:41.453Z,16.70
2018-11-04T19:09:10.789Z,18.13
2018-11-04T19:11:39.569Z,17.83
2018-11-04T19:14:08.439Z,18.23
2018-11-04T19:16:37.350Z,16.50
2018-11-04T19:19:06.301Z,18.17
2018-11-04T19:21:34.993Z,17.43
2018-11-04T19:24:03.713Z,17.53
2018-11-04T19:26:32.406Z,22.73
2018-11-04T19:29:01.045Z,21.97
2018-11-04T19:31:29.742Z,22.83
2018-11-04T19:33:58.518Z,23.50
2018-11-04T19:36:27.337Z,22.50
2018-11-04T19:38:56.069Z,27.30
2018-11-04T19:41:24.726Z,26.33
2018-11-04T19:43:53.336Z,25.17
2018-11-04T19:46:21.977Z,26.77
2018-11-04T19:48:50.787Z,29.83
2018-11-04T19:55:55.939Z,30.27
2018-11-04T19:58:24.676Z,32.00
2018-11-04T20:00:53.389Z,30.13
2018-11-04T20:03:22.245Z,28.53
2018-11-04T20:05:50.922Z,33.97
2018-11-04T20:08:19.649Z,30.83
2018-11-04T20:10:48.361Z,29.07
2018-11-04T20:13:23.293Z,29.90
2018-11-04T20:15:52.017Z,27.77
2018-11-04T20:18:25.817Z,30.70
2018-11-04T20:20:54.674Z,28.23
2018-11-04T20:23:23.352Z,29.03
2018-11-04T20:25:57.088Z,29.87
2018-11-04T20:28:25.737Z,30.30
2018-11-04T20:30:54.514Z,29.77
2018-11-04T20:33:23.193Z,28.30
2018-11-04T20:35:51.907Z,31.83
2018-11-04T20:38:24.891Z,33.40
2018-11-04T20:40:59.061Z,30.53
2018-11-04T20:43:27.733Z,25.93
2018-11-04T20:45:57.086Z,30.87
2018-11-04T20:48:30.717Z,28.70
2018-11-04T20:51:03.466Z,31.83
2018-11-04T20:53:32.181Z,26.23
2018-11-04T20:56:06.046Z,26.43
2018-11-04T20:58:34.785Z,28.27
2018-11-04T21:01:03.519Z,23.33
2018-11-04T21:03:32.171Z,25.23
2018-11-04T21:06:00.984Z,28.00
2018-11-04T21:08:31.176Z,22.63
2018-11-04T21:10:59.912Z,26.57
2018-11-04T21:13:29.314Z,25.93
2018-11-04T21:15:58.194Z,27.47
2018-11-04T21:18:26.878Z,30.20
2018-11-04T21:23:30.442Z,29.00
2018-11-04T21:25:59.122Z,26.37
2018-11-04T21:29:57.177Z,29.03
2018-11-04T21:32:25.991Z,30.73
2018-11-04T21:34:56.279Z,30.47
2018-11-04T21:37:25.571Z,25.47
2018-11-04T21:39:54.719Z,29.20
2018-11-04T21:42:24.096Z,26.20
2018-11-04T21:44:52.852Z,26.73
2018-11-04T21:47:21.646Z,21.33
2018-11-04T21:49:50.527Z,26.00
2018-11-04T21:52:19.282Z,22.07
2018-11-04T21:54:47.952Z,23.83
2018-11-04T21:57:16.660Z,19.13
2018-11-04T21:59:45.414Z,29.77
2018-11-04T22:02:14.246Z,27.63
2018-11-04T22:04:43.882Z,26.97
2018-11-04T22:07:12.631Z,27.23
2018-11-04T22:09:41.308Z,24.33
2018-11-04T22:12:09.967Z,25.63
2018-11-04T22:14:38.683Z,26.90
2018-11-04T22:17:07.393Z,22.80
2018-11-04T22:19:36.114Z,24.97
2018-11-04T22:22:04.857Z,46.07
2018-11-04T22:24:33.877Z,35.33
2018-11-04T22:27:02.512Z,20.00
2018-11-04T22:29:31.630Z,22.03
2018-11-04T22:32:00.316Z,21.27
2018-11-04T22:34:28.959Z,26.40
2018-11-04T22:36:57.645Z,21.83
2018-11-04T22:39:26.349Z,15.13
2018-11-04T22:41:55.147Z,14.03
2018-11-04T22:44:23.816Z,14.43
2018-11-04T22:46:52.531Z,17.57
2018-11-04T22:49:21.225Z,14.30
2018-11-04T22:51:49.924Z,16.33
2018-11-04T22:54:18.609Z,15.33
2018-11-04T22:56:47.617Z,16.17
2018-11-04T22:59:16.252Z,14.87
2018-11-04T23:01:45.010Z,15.67
2018-11-04T23:04:13.945Z,13.70
2018-11-04T23:06:42.535Z,12.73
2018-11-04T23:09:11.564Z,14.80
2018-11-04T23:11:40.277Z,11.90
2018-11-04T23:14:09.446Z,14.60
2018-11-04T23:16:38.117Z,13.30
2018-11-04T23:19:06.830Z,12.30
2018-11-04T23:21:35.524Z,14.03
2018-11-04T23:24:04.251Z,13.27
2018-11-04T23:26:32.886Z,16.37
2018-11-04T23:29:01.668Z,16.50
2018-11-04T23:31:30.340Z,13.67
2018-11-04T23:33:59.057Z,14.83
2018-11-04T23:36:27.729Z,14.30
2018-11-04T23:38:56.504Z,13.60
2018-11-04T23:41:25.197Z,15.57
2018-11-04T23:43:53.894Z,15.37
2018-11-04T23:46:22.569Z,14.63
2018-11-04T23:48:51.527Z,23.17
2018-11-04T23:51:20.188Z,17.87
2018-11-04T23:53:48.969Z,15.37
2018-11-04T23:56:17.676Z,16.03
2018-11-04T23:58:46.690Z,15.37
